Time;durP1;ratioP1;P1;durP2;ratioP2;P2;SDS_P1;SDS_P2;PMS_P1;PMS_P2;Temp;Humidity;BMP_temperature;BMP_pressure;BME280_temperature;BME280_humidity;BME280_pressure;Samples;Min_cycle;Max_cycle;Signal;HPM_P1;HPM_P2
2023/04/21 00:00:07;;;;;;;31.65;22.13;;;9.80;99.90;;;;;;5092299;28;20040;-66
2023/04/21 00:02:38;;;;;;;40.80;23.83;;;9.80;99.90;;;;;;5092335;28;20035;-66
2023/04/21 00:05:04;;;;;;;31.33;21.58;;;;;;;;;;5075069;28;20032;-66
2023/04/21 00:07:30;;;;;;;31.73;21.35;;;;;;;;;;5092155;28;20527;-65
2023/04/21 00:09:56;;;;;;;31.77;21.92;;;;;;;;;;5092008;28;20040;-65
2023/04/21 00:12:21;;;;;;;32.10;19.42;;;9.60;99.90;;;;;;5092059;28;20721;-66
2023/04/21 00:14:47;;;;;;;29.13;20.02;;;9.70;99.90;;;;;;5092051;28;20047;-66
2023/04/21 00:17:13;;;;;;;31.40;21.05;;;;;;;;;;5091424;28;20040;-65
2023/04/21 00:19:39;;;;;;;31.77;20.90;;;;;;;;;;5092992;28;20039;-65
2023/04/21 00:22:10;;;;;;;40.90;22.85;;;;;;;;;;5093103;28;20032;-66
2023/04/21 00:24:36;;;;;;;32.40;20.52;;;9.60;99.90;;;;;;5074894;28;20394;-66
2023/04/21 00:27:02;;;;;;;30.02;19.67;;;9.60;99.90;;;;;;5091835;28;20039;-66
2023/04/21 00:29:28;;;;;;;28.65;19.30;;;9.60;99.90;;;;;;5091587;28;20042;-66
2023/04/21 00:31:53;;;;;;;29.33;19.65;;;9.60;99.90;;;;;;5091519;28;20040;-66
2023/04/21 00:34:19;;;;;;;34.85;20.58;;;;;;;;;;5091532;28;20438;-65
2023/04/21 00:36:45;;;;;;;30.00;19.40;;;;;;;;;;5091444;28;20036;-65
2023/04/21 00:39:12;;;;;;;31.38;20.58;;;;;;;;;;5090483;28;20425;-66
2023/04/21 00:41:38;;;;;;;37.40;22.52;;;9.60;99.90;;;;;;5091740;28;20051;-66
2023/04/21 00:44:06;;;;;;;30.90;20.33;;;;;;;;;;5091470;28;20039;-65
2023/04/21 00:46:32;;;;;;;37.53;21.48;;;9.50;99.90;;;;;;5075092;28;20036;-65
2023/04/21 00:48:59;;;;;;;31.40;19.75;;;9.40;99.90;;;;;;5091417;28;20516;-65
2023/04/21 00:51:26;;;;;;;43.30;22.17;;;9.60;99.90;;;;;;5091324;28;20044;-65
2023/04/21 00:53:54;;;;;;;27.10;19.17;;;9.40;99.90;;;;;;5091374;28;20051;-68
2023/04/21 00:56:20;;;;;;;33.42;18.80;;;9.40;99.90;;;;;;5091214;28;20044;-65
2023/04/21 00:58:47;;;;;;;35.00;19.40;;;9.30;99.90;;;;;;5091159;28;20044;-66
2023/04/21 01:01:13;;;;;;;30.65;18.70;;;;;;;;;;5091087;28;20127;-66
2023/04/21 01:03:39;;;;;;;25.83;18.38;;;9.40;99.90;;;;;;5091263;28;20132;-65
2023/04/21 01:06:05;;;;;;;26.45;18.75;;;9.50;99.90;;;;;;5090887;28;20496;-65
2023/04/21 01:08:31;;;;;;;29.48;17.73;;;9.20;99.90;;;;;;5090809;28;20086;-65
2023/04/21 01:10:57;;;;;;;30.20;18.42;;;;;;;;;;5092341;28;20040;-66
2023/04/21 01:13:23;;;;;;;24.63;17.70;;;;;;;;;;5090836;28;20047;-65
2023/04/21 01:15:49;;;;;;;22.30;16.40;;;;;;;;;;5091214;28;20527;-64
2023/04/21 01:18:17;;;;;;;27.40;17.23;;;9.20;99.90;;;;;;5090911;28;20043;-66
2023/04/21 01:20:43;;;;;;;28.65;18.38;;;9.10;99.90;;;;;;5090992;28;20117;-67
2023/04/21 01:23:09;;;;;;;32.42;19.08;;;9.10;99.90;;;;;;5090823;28;20040;-66
2023/04/21 01:25:35;;;;;;;29.08;17.95;;;9.10;99.90;;;;;;5090852;28;20123;-65
2023/04/21 01:28:01;;;;;;;29.45;17.80;;;9.00;99.90;;;;;;5090623;28;20128;-65
2023/04/21 01:30:27;;;;;;;30.45;17.63;;;9.10;99.90;;;;;;5090593;28;20562;-65
2023/04/21 01:32:52;;;;;;;27.98;17.10;;;8.90;99.90;;;;;;5090628;28;20183;-66
2023/04/21 01:35:18;;;;;;;24.95;18.00;;;;;;;;;;5090356;28;20051;-66
2023/04/21 01:37:44;;;;;;;27.38;17.08;;;;;;;;;;5090372;28;20685;-66
2023/04/21 01:40:11;;;;;;;30.63;19.08;;;;;;;;;;5090487;28;20501;-66
2023/04/21 01:42:42;;;;;;;35.08;19.35;;;;;;;;;;5090737;28;20461;-65
2023/04/21 01:45:08;;;;;;;35.30;19.52;;;;;;;;;;5090558;28;20501;-66
2023/04/21 01:47:34;;;;;;;30.17;18.88;;;9.10;99.90;;;;;;5090229;28;20043;-65
2023/04/21 01:50:00;;;;;;;27.35;16.80;;;;;;;;;;5090335;28;20040;-65
2023/04/21 01:52:25;;;;;;;25.98;17.58;;;9.10;99.90;;;;;;5091625;28;20401;-66
2023/04/21 01:54:51;;;;;;;24.98;16.92;;;;;;;;;;5090453;28;20036;-66
2023/04/21 01:57:17;;;;;;;26.70;16.67;;;;;;;;;;5073303;28;20531;-66
2023/04/21 01:59:44;;;;;;;26.75;18.30;;;;;;;;;;5090270;28;20051;-66
2023/04/21 02:02:09;;;;;;;29.85;18.35;;;8.90;99.90;;;;;;5090369;28;20047;-66
2023/04/21 02:04:35;;;;;;;27.65;18.13;;;8.90;99.90;;;;;;5090052;28;20404;-67
2023/04/21 02:07:00;;;;;;;27.00;17.55;;;9.00;99.90;;;;;;5090250;28;20085;-66
2023/04/21 02:09:26;;;;;;;27.90;17.27;;;;;;;;;;5089975;28;20109;-66
2023/04/21 02:11:54;;;;;;;29.05;17.50;;;8.90;99.90;;;;;;5090299;28;20109;-65
2023/04/21 02:14:20;;;;;;;26.63;17.33;;;9.00;99.90;;;;;;5090117;28;20063;-66
2023/04/21 02:16:45;;;;;;;24.83;16.88;;;8.80;99.90;;;;;;5090053;28;20493;-65
2023/04/21 02:19:11;;;;;;;25.58;16.83;;;9.00;99.90;;;;;;5091343;28;20115;-66
2023/04/21 02:21:37;;;;;;;24.27;16.05;;;;;;;;;;5090159;28;20043;-65
2023/04/21 02:24:03;;;;;;;29.50;18.17;;;;;;;;;;5091347;28;20048;-66
2023/04/21 02:26:29;;;;;;;42.08;20.05;;;;;;;;;;5089965;28;20078;-67
2023/04/21 02:28:55;;;;;;;25.27;16.63;;;8.70;99.90;;;;;;5089880;28;20075;-66
2023/04/21 02:31:20;;;;;;;26.38;17.80;;;8.80;99.90;;;;;;5090336;28;20135;-66
2023/04/21 02:33:46;;;;;;;24.63;16.92;;;8.80;99.90;;;;;;5089959;28;20047;-66
2023/04/21 02:36:12;;;;;;;28.25;18.77;;;8.80;99.90;;;;;;5073208;28;20044;-66
2023/04/21 02:38:38;;;;;;;28.95;16.92;;;;;;;;;;5089942;28;20036;-66
2023/04/21 02:41:04;;;;;;;23.50;16.45;;;;;;;;;;5089829;28;20051;-65
2023/04/21 02:43:29;;;;;;;28.92;17.15;;;8.90;99.90;;;;;;5089770;28;20129;-66
2023/04/21 02:45:55;;;;;;;25.88;17.17;;;8.80;99.90;;;;;;5089832;28;20075;-66
2023/04/21 02:48:23;;;;;;;28.00;18.23;;;8.90;99.90;;;;;;5089561;28;20032;-65
2023/04/21 02:50:51;;;;;;;20.58;15.02;;;8.90;99.90;;;;;;5073369;28;20469;-65
2023/04/21 02:53:20;;;;;;;28.08;17.25;;;9.00;99.90;;;;;;5072959;28;20061;-66
2023/04/21 02:55:45;;;;;;;28.38;16.70;;;8.90;99.90;;;;;;5072957;28;20032;-68
2023/04/21 02:58:11;;;;;;;23.75;14.95;;;9.00;99.90;;;;;;5091081;28;20401;-68
2023/04/21 03:00:37;;;;;;;27.65;14.82;;;;;;;;;;5091178;28;20119;-66
2023/04/21 03:03:03;;;;;;;27.77;15.43;;;;;;;;;;5091173;28;20119;-67
2023/04/21 03:05:29;;;;;;;30.08;16.02;;;;;;;;;;5076295;28;20044;-67
2023/04/21 03:07:55;;;;;;;26.92;15.70;;;;;;;;;;5093148;28;20063;-67
2023/04/21 03:10:21;;;;;;;28.00;16.45;;;8.90;99.90;;;;;;5093245;28;20035;-67
2023/04/21 03:12:46;;;;;;;22.77;15.55;;;8.90;99.90;;;;;;5076373;28;20051;-67
2023/04/21 03:15:13;;;;;;;22.80;15.15;;;8.90;99.90;;;;;;5092992;28;20457;-67
2023/04/21 03:17:41;;;;;;;28.17;15.27;;;9.00;99.90;;;;;;5094431;28;20405;-67
2023/04/21 03:20:08;;;;;;;25.40;16.02;;;8.90;99.90;;;;;;5093432;28;20050;-66
2023/04/21 03:22:37;;;;;;;26.58;16.10;;;9.10;99.90;;;;;;5093143;28;20119;-67
2023/04/21 03:25:05;;;;;;;26.85;14.95;;;9.00;99.90;;;;;;5093139;28;20048;-68
2023/04/21 03:27:32;;;;;;;26.13;15.70;;;8.80;99.90;;;;;;5092800;28;20521;-66
2023/04/21 03:29:58;;;;;;;25.48;14.45;;;8.90;99.90;;;;;;5093167;28;20079;-67
2023/04/21 03:32:23;;;;;;;24.33;14.77;;;9.00;99.90;;;;;;5092958;28;20102;-67
2023/04/21 03:34:49;;;;;;;23.45;15.02;;;;;;;;;;5092581;28;20040;-67
2023/04/21 03:37:15;;;;;;;28.00;16.50;;;;;;;;;;5092668;28;20044;-67
2023/04/21 03:39:41;;;;;;;28.25;15.52;;;;;;;;;;5092656;28;20055;-67
2023/04/21 03:42:07;;;;;;;28.75;15.18;;;9.10;99.90;;;;;;5092856;28;20131;-67
2023/04/21 03:44:33;;;;;;;23.77;15.40;;;9.00;99.90;;;;;;5092823;28;20032;-67
2023/04/21 03:46:59;;;;;;;23.45;15.32;;;9.10;99.90;;;;;;5075816;28;20505;-67
2023/04/21 03:49:25;;;;;;;27.00;15.00;;;9.00;99.90;;;;;;5092631;28;20051;-67
2023/04/21 03:51:50;;;;;;;18.63;13.38;;;9.20;99.90;;;;;;5093799;28;20040;-68
2023/04/21 03:54:16;;;;;;;23.38;13.73;;;;;;;;;;5075557;28;20070;-67
2023/04/21 03:56:42;;;;;;;23.48;14.85;;;;;;;;;;5092235;28;20044;-67
2023/04/21 03:59:08;;;;;;;21.20;14.80;;;;;;;;;;5075429;28;20086;-66
2023/04/21 04:01:34;;;;;;;20.35;13.60;;;9.00;99.90;;;;;;5092285;28;20044;-65
2023/04/21 04:03:59;;;;;;;22.40;13.75;;;9.20;99.90;;;;;;5075590;28;20034;-66
2023/04/21 04:06:25;;;;;;;27.08;14.32;;;9.10;99.90;;;;;;5075612;28;20036;-67
2023/04/21 04:08:51;;;;;;;24.13;13.68;;;9.10;99.90;;;;;;5091929;28;20441;-65
2023/04/21 04:11:17;;;;;;;20.30;13.68;;;;;;;;;;5093576;28;20055;-66
2023/04/21 04:13:42;;;;;;;23.83;14.30;;;9.10;99.90;;;;;;5093206;28;20123;-66
2023/04/21 04:16:08;;;;;;;19.48;12.93;;;8.90;99.90;;;;;;5092062;28;20505;-66
2023/04/21 04:18:33;;;;;;;22.40;13.93;;;9.10;99.90;;;;;;5091322;28;20047;-67
2023/04/21 04:21:07;;;;;;;24.17;13.57;;;9.10;99.90;;;;;;5075043;28;20040;-66
2023/04/21 04:23:33;;;;;;;19.20;13.10;;;9.10;99.90;;;;;;5091939;28;20114;-67
2023/04/21 04:26:00;;;;;;;21.75;13.88;;;9.20;99.90;;;;;;5091821;28;20066;-66
2023/04/21 04:28:26;;;;;;;29.95;16.65;;;9.10;99.90;;;;;;5091488;28;20169;-66
2023/04/21 04:30:52;;;;;;;22.23;14.35;;;;;;;;;;5075139;28;20127;-66
2023/04/21 04:33:18;;;;;;;21.98;13.07;;;;;;;;;;5091626;28;20040;-66
2023/04/21 04:35:43;;;;;;;25.63;14.57;;;9.20;99.90;;;;;;5091448;28;20048;-66
2023/04/21 04:38:10;;;;;;;21.70;14.40;;;9.10;99.90;;;;;;5074487;28;20032;-65
2023/04/21 04:40:35;;;;;;;20.52;13.60;;;9.20;99.90;;;;;;5074997;28;20451;-66
2023/04/21 04:43:02;;;;;;;21.15;14.35;;;;;;;;;;5091476;28;20119;-66
2023/04/21 04:45:30;;;;;;;22.95;14.10;;;9.30;99.90;;;;;;5074601;28;20386;-66
2023/04/21 04:47:56;;;;;;;19.33;13.30;;;9.30;99.90;;;;;;5091474;28;20465;-66
2023/04/21 04:50:22;;;;;;;22.77;12.95;;;9.30;99.90;;;;;;5091201;28;20039;-66
2023/04/21 04:52:48;;;;;;;20.80;14.10;;;9.20;99.90;;;;;;5091172;28;20040;-66
2023/04/21 04:55:14;;;;;;;19.55;13.00;;;9.30;99.90;;;;;;5091037;28;20105;-66
2023/04/21 04:57:40;;;;;;;19.35;13.27;;;9.30;99.90;;;;;;5074292;28;20497;-66
2023/04/21 05:00:10;;;;;;;19.73;12.70;;;9.40;99.90;;;;;;5091970;28;20036;-66
2023/04/21 05:02:36;;;;;;;21.17;13.68;;;;;;;;;;5091515;28;20032;-66
2023/04/21 05:05:02;;;;;;;24.48;13.82;;;;;;;;;;5091513;28;20097;-66
2023/04/21 05:07:28;;;;;;;20.75;13.18;;;;;;;;;;5091353;28;20586;-66
2023/04/21 05:09:53;;;;;;;20.92;12.93;;;9.30;99.90;;;;;;5092308;28;20040;-66
2023/04/21 05:12:19;;;;;;;20.00;13.27;;;9.40;99.90;;;;;;5090952;28;20409;-66
2023/04/21 05:14:44;;;;;;;17.58;12.02;;;9.40;99.90;;;;;;5090558;28;20077;-66
2023/04/21 05:17:10;;;;;;;19.15;12.63;;;;;;;;;;5090576;28;20028;-66
2023/04/21 05:19:36;;;;;;;25.38;12.55;;;;;;;;;;5090607;28;20044;-66
2023/04/21 05:22:05;;;;;;;21.10;14.15;;;;;;;;;;5090618;28;20040;-66
2023/04/21 05:24:31;;;;;;;24.38;12.38;;;;;;;;;;5090431;28;20040;-66
2023/04/21 05:26:57;;;;;;;24.38;12.15;;;;;;;;;;5090293;28;20535;-66
2023/04/21 05:29:23;;;;;;;20.42;12.50;;;;;;;;;;5090421;28;20044;-65
2023/04/21 05:31:48;;;;;;;25.95;13.25;;;9.60;99.90;;;;;;5090548;28;20436;-66
2023/04/21 05:34:14;;;;;;;20.15;12.55;;;9.40;99.90;;;;;;5090581;28;20040;-66
2023/04/21 05:36:43;;;;;;;18.13;12.27;;;9.60;99.90;;;;;;5090625;28;20050;-65
2023/04/21 05:39:08;;;;;;;15.45;11.63;;;9.50;99.90;;;;;;5090345;28;20040;-66
2023/04/21 05:41:34;;;;;;;18.88;12.52;;;9.50;99.90;;;;;;5090683;28;20042;-66
2023/04/21 05:44:00;;;;;;;21.20;12.60;;;9.50;99.90;;;;;;5090430;28;20039;-66
2023/04/21 05:46:25;;;;;;;28.65;13.15;;;9.50;99.90;;;;;;5091628;28;20044;-66
2023/04/21 05:48:51;;;;;;;20.25;12.80;;;9.70;99.90;;;;;;5091319;28;20039;-66
2023/04/21 05:51:16;;;;;;;21.58;12.68;;;9.80;99.90;;;;;;5090683;28;20044;-66
2023/04/21 05:53:43;;;;;;;19.98;11.95;;;9.50;99.90;;;;;;5090597;28;20040;-66
2023/04/21 05:56:10;;;;;;;15.75;11.10;;;9.80;99.90;;;;;;5090420;28;20483;-66
2023/04/21 05:58:35;;;;;;;19.25;11.98;;;9.80;99.90;;;;;;5089907;28;20093;-67
2023/04/21 06:01:02;;;;;;;22.67;12.00;;;;;;;;;;5090354;28;20028;-67
2023/04/21 06:03:31;;;;;;;16.60;10.73;;;;;;;;;;5088592;28;20823;-66
2023/04/21 06:05:57;;;;;;;21.17;12.10;;;;;;;;;;5083734;28;20052;-67
2023/04/21 06:08:23;;;;;;;19.40;11.43;;;;;;;;;;5069596;28;20102;-67
2023/04/21 06:10:49;;;;;;;17.48;11.25;;;;;;;;;;5076933;28;20513;-66
2023/04/21 06:13:15;;;;;;;18.73;11.40;;;;;;;;;;5071875;28;20048;-66
2023/04/21 06:15:41;;;;;;;23.55;12.32;;;;;;;;;;5077946;28;20045;-66
2023/04/21 06:18:07;;;;;;;16.67;11.48;;;;;;;;;;5071892;28;20387;-67
2023/04/21 06:20:33;;;;;;;17.95;11.20;;;;;;;;;;5085397;28;20286;-67
2023/04/21 06:22:59;;;;;;;22.30;11.32;;;;;;;;;;5080457;28;20037;-67
2023/04/21 06:25:26;;;;;;;17.10;12.35;;;;;;;;;;5061339;28;20464;-67
2023/04/21 06:27:52;;;;;;;17.92;10.60;;;;;;;;;;5080051;28;20036;-67
2023/04/21 06:30:17;;;;;;;18.00;12.52;;;10.40;99.90;;;;;;5077605;28;20368;-66
2023/04/21 06:32:47;;;;;;;18.52;11.55;;;;;;;;;;5083085;28;20040;-67
2023/04/21 06:35:14;;;;;;;17.08;11.10;;;;;;;;;;5075838;28;20518;-66
2023/04/21 06:37:40;;;;;;;19.88;12.50;;;;;;;;;;5081723;28;20117;-69
2023/04/21 06:40:06;;;;;;;19.77;12.10;;;10.40;99.90;;;;;;5082163;28;20065;-67
2023/04/21 06:42:32;;;;;;;22.90;12.35;;;;;;;;;;5082896;28;20443;-67
2023/04/21 06:44:58;;;;;;;17.20;10.70;;;;;;;;;;5081372;28;20036;-67
2023/04/21 06:47:25;;;;;;;20.95;10.95;;;10.60;99.90;;;;;;5086467;28;20418;-66
2023/04/21 06:49:50;;;;;;;20.65;11.73;;;10.60;99.90;;;;;;5063545;28;20062;-67
2023/04/21 06:52:16;;;;;;;22.80;10.85;;;;;;;;;;5081823;28;20033;-67
2023/04/21 06:54:42;;;;;;;22.17;12.65;;;10.70;99.90;;;;;;5085532;28;20068;-66
2023/04/21 06:57:08;;;;;;;22.88;12.73;;;;;;;;;;5088714;28;20122;-65
2023/04/21 06:59:34;;;;;;;19.48;12.52;;;;;;;;;;5069160;28;20044;-66
2023/04/21 07:02:00;;;;;;;17.73;11.00;;;;;;;;;;5066635;28;20028;-66
2023/04/21 07:04:28;;;;;;;18.50;11.45;;;;;;;;;;5080167;28;20146;-66
2023/04/21 07:06:54;;;;;;;21.98;12.82;;;10.80;99.90;;;;;;5078640;28;20523;-66
2023/04/21 07:09:21;;;;;;;21.40;11.15;;;;;;;;;;5079458;28;20040;-66
2023/04/21 07:11:46;;;;;;;23.17;11.98;;;;;;;;;;5084790;28;20093;-66
2023/04/21 07:14:13;;;;;;;19.10;11.77;;;;;;;;;;5078088;28;20048;-67
2023/04/21 07:16:39;;;;;;;16.48;9.88;;;;;;;;;;5076678;28;20127;-67
2023/04/21 07:19:05;;;;;;;25.10;11.73;;;;;;;;;;5078483;28;20033;-67
2023/04/21 07:21:30;;;;;;;18.98;11.85;;;11.30;99.90;;;;;;5078447;28;20048;-65
2023/04/21 07:23:59;;;;;;;23.05;12.32;;;11.30;99.90;;;;;;5079024;28;20529;-67
2023/04/21 07:26:25;;;;;;;18.90;10.68;;;;;;;;;;5076536;28;20040;-66
2023/04/21 07:28:51;;;;;;;22.48;12.40;;;;;;;;;;5076618;22;20525;-70
2023/04/21 07:31:17;;;;;;;18.60;11.40;;;;;;;;;;5011895;28;20045;-70
2023/04/21 07:33:43;;;;;;;21.55;11.70;;;;;;;;;;5022672;28;20048;-69
2023/04/21 07:36:09;;;;;;;17.80;11.35;;;11.40;99.90;;;;;;5033482;28;20503;-70
2023/04/21 07:38:37;;;;;;;24.73;11.60;;;11.50;99.90;;;;;;5027319;28;20037;-70
2023/04/21 07:41:03;;;;;;;17.27;11.05;;;11.70;99.90;;;;;;5011806;28;20081;-70
2023/04/21 07:43:29;;;;;;;19.50;10.90;;;11.80;99.90;;;;;;5011766;28;20415;-70
2023/04/21 07:45:56;;;;;;;20.80;12.02;;;11.70;99.90;;;;;;5020365;28;20045;-71
2023/04/21 07:48:21;;;;;;;19.83;10.98;;;11.70;99.90;;;;;;5030480;28;20046;-70
2023/04/21 07:50:49;;;;;;;25.27;12.77;;;11.80;99.90;;;;;;5028523;28;20087;-70
2023/04/21 07:53:15;;;;;;;15.73;10.60;;;;;;;;;;5026912;28;20117;-70
2023/04/21 07:55:41;;;;;;;16.95;11.80;;;;;;;;;;5031866;28;20041;-71
2023/04/21 07:58:08;;;;;;;17.48;11.32;;;;;;;;;;5019836;28;20029;-71
2023/04/21 08:00:35;;;;;;;20.98;12.02;;;;;;;;;;4995426;28;20041;-70
2023/04/21 08:03:01;;;;;;;24.75;12.45;;;;;;;;;;5014286;28;20034;-68
2023/04/21 08:05:28;;;;;;;18.60;11.43;;;;;;;;;;5032515;28;20041;-70
2023/04/21 08:07:53;;;;;;;21.55;11.80;;;;;;;;;;5006911;28;20400;-69
2023/04/21 08:10:19;;;;;;;20.95;11.05;;;;;;;;;;5011899;28;20088;-69
2023/04/21 08:12:45;;;;;;;20.88;11.57;;;13.20;99.90;;;;;;5032989;28;20064;-69
2023/04/21 08:15:11;;;;;;;19.15;10.95;;;13.00;99.90;;;;;;5015157;28;20049;-70
2023/04/21 08:17:37;;;;;;;17.10;9.55;;;;;;;;;;5017246;28;20488;-70
2023/04/21 08:20:04;;;;;;;20.50;12.27;;;;;;;;;;5027515;28;20478;-70
2023/04/21 08:22:30;;;;;;;18.23;11.25;;;13.30;99.90;;;;;;5044082;28;20495;-69
2023/04/21 08:24:55;;;;;;;16.85;10.75;;;13.30;99.90;;;;;;5022263;28;20056;-69
2023/04/21 08:27:21;;;;;;;15.50;10.43;;;13.30;99.90;;;;;;5030211;28;20037;-69
2023/04/21 08:29:47;;;;;;;19.45;10.75;;;;;;;;;;5011939;28;20045;-70
2023/04/21 08:32:13;;;;;;;19.70;11.15;;;;;;;;;;5011321;28;20147;-70
2023/04/21 08:34:39;;;;;;;20.65;10.73;;;;;;;;;;5011751;28;20188;-70
2023/04/21 08:37:05;;;;;;;19.27;12.02;;;;;;;;;;5010476;28;20037;-70
2023/04/21 08:39:31;;;;;;;15.70;9.95;;;;;;;;;;5011254;28;20045;-70
2023/04/21 08:41:58;;;;;;;18.42;11.18;;;13.80;99.90;;;;;;5020433;28;20033;-69
2023/04/21 08:44:23;;;;;;;16.88;10.65;;;14.00;99.90;;;;;;5011456;28;20567;-70
2023/04/21 08:46:50;;;;;;;13.27;10.48;;;;;;;;;;5010395;28;20121;-69
2023/04/21 08:49:19;;;;;;;18.38;10.70;;;14.30;99.90;;;;;;5009561;28;20046;-70
2023/04/21 08:51:45;;;;;;;18.33;11.20;;;14.30;99.90;;;;;;5044123;28;20049;-69
2023/04/21 08:54:11;;;;;;;22.40;10.02;;;14.40;99.90;;;;;;5026095;28;20049;-69
2023/04/21 08:56:38;;;;;;;20.92;11.43;;;14.50;99.90;;;;;;5014162;28;20047;-70
2023/04/21 08:59:04;;;;;;;20.08;10.48;;;;;;;;;;5025095;28;20038;-70
2023/04/21 09:01:29;;;;;;;15.18;9.98;;;14.60;99.90;;;;;;5043466;28;20081;-70
2023/04/21 09:04:15;;;;;;;16.27;9.85;;;14.80;99.90;;;;;;5010926;28;20392;-70
2023/04/21 09:06:45;;;;;;;18.67;9.98;;;14.50;99.90;;;;;;5019431;28;20042;-70
2023/04/21 09:09:11;;;;;;;18.23;10.95;;;;;;;;;;4993171;28;20049;-70
2023/04/21 09:11:37;;;;;;;13.85;10.00;;;;;;;;;;4993206;28;20042;-70
2023/04/21 09:14:03;;;;;;;16.35;9.73;;;;;;;;;;5042971;28;20045;-71
2023/04/21 09:16:33;;;;;;;14.60;9.25;;;14.20;99.90;;;;;;4994254;28;20042;-71
2023/04/21 09:19:00;;;;;;;21.80;11.23;;;14.30;99.90;;;;;;5038808;28;20523;-70
2023/04/21 09:21:28;;;;;;;15.60;9.77;;;14.30;99.90;;;;;;5022177;28;20514;-70
2023/04/21 09:23:54;;;;;;;22.88;9.73;;;;;;;;;;5030960;28;20033;-70
2023/04/21 09:26:24;;;;;;;16.13;10.13;;;14.50;99.90;;;;;;5020398;28;20048;-70
2023/04/21 09:28:51;;;;;;;14.77;9.02;;;14.60;99.90;;;;;;4993652;28;20042;-70
2023/04/21 09:31:23;;;;;;;16.33;9.60;;;14.90;99.90;;;;;;5010324;28;20128;-70
2023/04/21 09:33:55;;;;;;;18.23;10.82;;;14.90;99.90;;;;;;5012398;28;20057;-70
2023/04/21 09:36:22;;;;;;;15.93;9.13;;;14.90;99.90;;;;;;5030262;28;20041;-70
2023/04/21 09:38:54;;;;;;;15.98;10.02;;;15.20;99.90;;;;;;5019886;28;20050;-70
2023/04/21 09:41:20;;;;;;;19.15;10.30;;;;;;;;;;5009571;28;20038;-70
2023/04/21 09:43:47;;;;;;;19.23;10.10;;;15.20;99.90;;;;;;5013332;28;20037;-70
2023/04/21 09:46:15;;;;;;;20.27;10.50;;;15.30;99.90;;;;;;5017186;28;20045;-71
2023/04/21 09:48:43;;;;;;;15.40;8.48;;;15.50;99.90;;;;;;5010406;28;20088;-69
2023/04/21 09:51:14;;;;;;;14.32;9.77;;;15.40;99.90;;;;;;5010147;28;20411;-70
2023/04/21 09:53:40;;;;;;;17.27;9.43;;;15.70;99.90;;;;;;5009178;28;20092;-70
2023/04/21 09:56:13;;;;;;;17.17;9.80;;;16.00;99.90;;;;;;5012424;28;20057;-70
2023/04/21 09:58:47;;;;;;;19.63;9.18;;;16.00;99.90;;;;;;5023039;28;20057;-69
2023/04/21 10:01:14;;;;;;;16.45;9.35;;;16.10;99.90;;;;;;4974319;28;20038;-70
2023/04/21 10:03:42;;;;;;;17.60;9.77;;;16.00;99.90;;;;;;5028103;28;20828;-69
2023/04/21 10:06:08;;;;;;;18.60;8.48;;;;;;;;;;5010070;28;20056;-70
2023/04/21 10:08:35;;;;;;;22.77;10.35;;;15.80;99.90;;;;;;5010812;28;20385;-70
2023/04/21 10:11:02;;;;;;;15.93;9.50;;;16.00;99.90;;;;;;5043245;28;20093;-70
2023/04/21 10:13:28;;;;;;;17.98;9.43;;;;;;;;;;5015504;28;20053;-70
2023/04/21 10:16:02;;;;;;;18.98;9.30;;;16.20;99.90;;;;;;5013798;28;20046;-70
2023/04/21 10:18:29;;;;;;;21.30;10.68;;;;;;;;;;5015365;28;20099;-70
2023/04/21 10:20:55;;;;;;;11.90;8.93;;;;;;;;;;5015548;28;20038;-70
2023/04/21 10:23:52;;;;;;;13.00;9.70;;;16.40;99.90;;;;;;5014016;28;20037;-69
2023/04/21 10:26:25;;;;;;;16.58;9.45;;;16.30;99.90;;;;;;4997514;28;20046;-69
2023/04/21 10:28:53;;;;;;;15.35;8.75;;;16.20;99.90;;;;;;5046575;28;20041;-69
2023/04/21 10:31:24;;;;;;;17.25;10.07;;;16.60;99.90;;;;;;5030627;28;20042;-70
2023/04/21 10:34:08;;;;;;;19.40;9.82;;;16.70;99.90;;;;;;5014273;28;20132;-70
2023/04/21 10:36:50;;;;;;;21.67;10.90;;;16.70;99.90;;;;;;5013014;28;20427;-69
2023/04/21 10:39:32;;;;;;;19.20;9.93;;;17.10;99.90;;;;;;5046453;28;20065;-69
2023/04/21 10:42:23;;;;;;;12.82;9.05;;;17.10;99.90;;;;;;5014418;28;20045;-69
2023/04/21 10:44:55;;;;;;;20.70;9.98;;;17.20;99.90;;;;;;5009652;28;20073;-70
2023/04/21 10:47:37;;;;;;;18.55;9.65;;;17.30;99.90;;;;;;4992932;28;20041;-70
2023/04/21 10:50:16;;;;;;;18.50;9.50;;;17.40;99.90;;;;;;5009743;28;20519;-70
2023/04/21 10:53:07;;;;;;;16.00;9.77;;;17.30;99.90;;;;;;4992019;28;20081;-70
2023/04/21 10:55:33;;;;;;;16.30;9.55;;;17.40;99.90;;;;;;5021154;28;20050;-71
2023/04/21 10:58:02;;;;;;;15.27;9.80;;;17.40;99.90;;;;;;5007949;28;20041;-71
2023/04/21 11:00:28;;;;;;;18.13;10.07;;;17.40;99.90;;;;;;5001762;28;20046;-70
2023/04/21 11:02:59;;;;;;;17.80;9.55;;;17.50;99.90;;;;;;5007758;28;20426;-70
2023/04/21 11:05:35;;;;;;;14.85;9.82;;;17.40;99.90;;;;;;5008917;28;20462;-71
2023/04/21 11:08:14;;;;;;;19.63;10.02;;;16.90;99.90;;;;;;4989550;28;20034;-71
2023/04/21 11:10:50;;;;;;;17.23;9.20;;;17.20;99.90;;;;;;5016991;28;20044;-71
2023/04/21 11:13:16;;;;;;;20.48;10.93;;;17.10;99.90;;;;;;5010441;28;20137;-69
2023/04/21 11:15:56;;;;;;;17.73;9.25;;;17.60;99.90;;;;;;5010940;28;20045;-70
2023/04/21 11:18:31;;;;;;;12.43;8.02;;;;;;;;;;5014503;28;20090;-71
2023/04/21 11:21:09;;;;;;;15.57;9.82;;;18.00;99.90;;;;;;5032312;28;20033;-71
2023/04/21 11:23:39;;;;;;;16.67;9.13;;;18.10;99.90;;;;;;5013451;28;20187;-70
2023/04/21 11:26:05;;;;;;;13.40;9.18;;;18.10;99.90;;;;;;5045297;28;20041;-70
2023/04/21 11:28:31;;;;;;;18.13;9.55;;;18.00;99.90;;;;;;5011883;28;20414;-71
2023/04/21 11:30:56;;;;;;;15.43;8.57;;;18.20;99.90;;;;;;5034966;28;20177;-70
2023/04/21 11:33:22;;;;;;;16.80;9.43;;;18.10;99.90;;;;;;5045507;28;20515;-70
2023/04/21 11:35:50;;;;;;;11.98;8.80;;;18.20;99.90;;;;;;5038427;28;20042;-70
2023/04/21 11:38:17;;;;;;;23.33;8.82;;;17.90;99.90;;;;;;5042330;28;20089;-70
2023/04/21 11:40:45;;;;;;;18.98;9.18;;;18.10;99.90;;;;;;5012405;28;20034;-70
2023/04/21 11:43:11;;;;;;;18.92;9.45;;;18.50;99.90;;;;;;5026549;28;20037;-70
2023/04/21 11:45:36;;;;;;;16.58;8.75;;;18.00;99.90;;;;;;5016703;28;20042;-70
2023/04/21 11:48:16;;;;;;;14.30;8.43;;;18.10;99.90;;;;;;5011501;28;20065;-68
2023/04/21 11:50:47;;;;;;;17.45;8.63;;;18.10;99.90;;;;;;5032059;28;20137;-69
2023/04/21 11:53:16;;;;;;;13.63;8.10;;;18.20;99.90;;;;;;5031893;28;20048;-69
2023/04/21 11:55:45;;;;;;;14.57;9.00;;;18.90;99.90;;;;;;5031651;28;20048;-70
2023/04/21 11:58:14;;;;;;;12.27;8.15;;;18.90;99.90;;;;;;5032089;28;20537;-70
2023/04/21 12:00:43;;;;;;;14.15;8.57;;;18.30;99.90;;;;;;5015346;28;20044;-70
2023/04/21 12:03:09;;;;;;;14.43;8.20;;;18.20;99.90;;;;;;5031007;28;20582;-70
2023/04/21 12:05:35;;;;;;;11.60;7.70;;;18.20;99.90;;;;;;5014637;28;20038;-70
2023/04/21 12:08:02;;;;;;;16.38;8.75;;;18.50;99.90;;;;;;5013636;28;20041;-71
2023/04/21 12:10:28;;;;;;;18.13;9.02;;;18.70;99.90;;;;;;4995448;28;20095;-71
2023/04/21 12:12:55;;;;;;;10.02;7.38;;;19.60;99.90;;;;;;5010715;28;20030;-69
2023/04/21 12:15:22;;;;;;;12.65;7.57;;;18.50;99.90;;;;;;5019733;28;20064;-69
2023/04/21 12:17:52;;;;;;;11.45;7.00;;;18.60;99.90;;;;;;5011268;28;20530;-70
2023/04/21 12:20:23;;;;;;;12.40;7.15;;;18.90;99.90;;;;;;4994993;28;20421;-68
2023/04/21 12:22:49;;;;;;;9.45;6.07;;;18.70;99.90;;;;;;5011877;28;20458;-70
2023/04/21 12:25:14;;;;;;;9.63;5.88;;;19.10;99.90;;;;;;5011337;28;20064;-70
2023/04/21 12:27:51;;;;;;;11.55;6.82;;;18.90;99.90;;;;;;5036110;28;20496;-69
2023/04/21 12:30:17;;;;;;;9.82;6.13;;;18.60;99.90;;;;;;5014524;28;20487;-70
2023/04/21 12:32:43;;;;;;;12.02;6.65;;;18.90;99.90;;;;;;5031803;28;20128;-70
2023/04/21 12:35:09;;;;;;;8.88;4.85;;;19.00;99.90;;;;;;5019366;28;20684;-70
2023/04/21 12:37:35;;;;;;;7.57;4.80;;;18.80;99.90;;;;;;5016053;28;20042;-70
2023/04/21 12:40:01;;;;;;;9.00;5.28;;;18.80;99.90;;;;;;5039711;28;20053;-69
2023/04/21 12:42:26;;;;;;;13.68;5.35;;;18.80;99.90;;;;;;5024564;28;20037;-70
2023/04/21 12:44:52;;;;;;;8.23;5.25;;;18.60;99.90;;;;;;5024252;28;20037;-70
2023/04/21 12:47:17;;;;;;;16.30;5.90;;;18.70;99.90;;;;;;5014350;28;20045;-70
2023/04/21 12:49:43;;;;;;;7.38;4.35;;;18.60;99.90;;;;;;5008165;28;20038;-70
2023/04/21 12:52:08;;;;;;;7.10;4.85;;;18.50;99.90;;;;;;4995326;28;20060;-70
2023/04/21 12:54:34;;;;;;;12.68;4.93;;;18.40;99.90;;;;;;5010795;28;20041;-70
2023/04/21 12:57:00;;;;;;;11.30;5.28;;;;;;;;;;5011075;28;20038;-70
2023/04/21 12:59:26;;;;;;;14.18;4.88;;;18.90;99.90;;;;;;5010607;28;20034;-70
2023/04/21 13:01:51;;;;;;;11.52;5.20;;;18.60;99.90;;;;;;5044157;28;20076;-70
2023/04/21 13:04:17;;;;;;;12.00;4.40;;;18.60;99.90;;;;;;5010609;28;20034;-70
2023/04/21 13:06:42;;;;;;;11.05;4.75;;;18.50;99.90;;;;;;5026901;28;20048;-70